sensor_id;sensor_type;location;lat;lon;timestamp;P1;durP1;ratioP1;P2;durP2;ratioP2
34200;SDS011;20469;55.638;37.670;2023-05-21T00:00:28;6.80;;;4.53;;
34200;SDS011;20469;55.638;37.670;2023-05-21T00:02:56;7.20;;;4.47;;
34200;SDS011;20469;55.638;37.670;2023-05-21T00:05:24;8.35;;;4.80;;
34200;SDS011;20469;55.638;37.670;2023-05-21T00:07:52;5.32;;;4.78;;
34200;SDS011;20469;55.638;37.670;2023-05-21T00:10:20;5.72;;;4.72;;
34200;SDS011;20469;55.638;37.670;2023-05-21T00:12:47;7.53;;;4.47;;
34200;SDS011;20469;55.638;37.670;2023-05-21T00:15:15;6.20;;;4.20;;
34200;SDS011;20469;55.638;37.670;2023-05-21T00:17:42;7.90;;;4.50;;
34200;SDS011;20469;55.638;37.670;2023-05-21T00:20:10;5.93;;;4.35;;
34200;SDS011;20469;55.638;37.670;2023-05-21T00:22:38;6.25;;;4.18;;
34200;SDS011;20469;55.638;37.670;2023-05-21T00:25:08;9.25;;;4.30;;
34200;SDS011;20469;55.638;37.670;2023-05-21T00:27:36;9.50;;;4.60;;
34200;SDS011;20469;55.638;37.670;2023-05-21T00:30:04;7.47;;;4.20;;
34200;SDS011;20469;55.638;37.670;2023-05-21T00:32:35;6.63;;;5.45;;
34200;SDS011;20469;55.638;37.670;2023-05-21T00:35:03;9.60;;;5.43;;
34200;SDS011;20469;55.638;37.670;2023-05-21T00:37:30;7.43;;;4.57;;
34200;SDS011;20469;55.638;37.670;2023-05-21T00:39:58;6.03;;;4.60;;
34200;SDS011;20469;55.638;37.670;2023-05-21T00:42:26;7.28;;;4.63;;
34200;SDS011;20469;55.638;37.670;2023-05-21T00:44:56;5.10;;;4.13;;
34200;SDS011;20469;55.638;37.670;2023-05-21T00:47:23;5.97;;;4.65;;
34200;SDS011;20469;55.638;37.670;2023-05-21T00:49:55;6.82;;;4.43;;
34200;SDS011;20469;55.638;37.670;2023-05-21T00:52:22;5.82;;;4.75;;
34200;SDS011;20469;55.638;37.670;2023-05-21T00:54:52;5.78;;;4.75;;
34200;SDS011;20469;55.638;37.670;2023-05-21T00:57:24;8.23;;;4.60;;
34200;SDS011;20469;55.638;37.670;2023-05-21T00:59:52;6.18;;;4.70;;
34200;SDS011;20469;55.638;37.670;2023-05-21T01:02:19;6.47;;;4.65;;
34200;SDS011;20469;55.638;37.670;2023-05-21T01:04:50;5.60;;;4.88;;
34200;SDS011;20469;55.638;37.670;2023-05-21T01:07:21;8.30;;;5.10;;
34200;SDS011;20469;55.638;37.670;2023-05-21T01:09:48;6.30;;;4.65;;
34200;SDS011;20469;55.638;37.670;2023-05-21T01:12:16;6.68;;;4.80;;
34200;SDS011;20469;55.638;37.670;2023-05-21T01:14:44;5.95;;;4.88;;
34200;SDS011;20469;55.638;37.670;2023-05-21T01:17:11;7.03;;;5.50;;
34200;SDS011;20469;55.638;37.670;2023-05-21T01:19:40;5.63;;;4.63;;
34200;SDS011;20469;55.638;37.670;2023-05-21T01:22:10;6.55;;;5.45;;
34200;SDS011;20469;55.638;37.670;2023-05-21T01:24:39;8.57;;;5.88;;
34200;SDS011;20469;55.638;37.670;2023-05-21T01:27:07;6.55;;;5.55;;
34200;SDS011;20469;55.638;37.670;2023-05-21T01:29:36;6.88;;;5.47;;
34200;SDS011;20469;55.638;37.670;2023-05-21T01:32:04;5.97;;;5.40;;
34200;SDS011;20469;55.638;37.670;2023-05-21T01:40:02;6.97;;;5.95;;
34200;SDS011;20469;55.638;37.670;2023-05-21T01:42:38;7.22;;;6.10;;
34200;SDS011;20469;55.638;37.670;2023-05-21T01:45:09;7.18;;;5.60;;
34200;SDS011;20469;55.638;37.670;2023-05-21T01:47:37;7.57;;;5.90;;
34200;SDS011;20469;55.638;37.670;2023-05-21T01:50:06;8.02;;;5.60;;
34200;SDS011;20469;55.638;37.670;2023-05-21T01:52:35;14.32;;;11.95;;
34200;SDS011;20469;55.638;37.670;2023-05-21T01:55:03;7.05;;;6.35;;
34200;SDS011;20469;55.638;37.670;2023-05-21T01:57:30;7.60;;;6.28;;
34200;SDS011;20469;55.638;37.670;2023-05-21T01:59:57;11.93;;;6.78;;
34200;SDS011;20469;55.638;37.670;2023-05-21T02:02:24;6.97;;;6.28;;
34200;SDS011;20469;55.638;37.670;2023-05-21T02:04:52;8.85;;;6.85;;
34200;SDS011;20469;55.638;37.670;2023-05-21T02:07:19;7.25;;;6.40;;
34200;SDS011;20469;55.638;37.670;2023-05-21T02:09:46;8.82;;;6.65;;
34200;SDS011;20469;55.638;37.670;2023-05-21T02:12:13;8.63;;;6.60;;
34200;SDS011;20469;55.638;37.670;2023-05-21T02:14:41;8.57;;;7.10;;
34200;SDS011;20469;55.638;37.670;2023-05-21T02:17:08;10.32;;;8.15;;
34200;SDS011;20469;55.638;37.670;2023-05-21T02:19:36;10.35;;;7.55;;
34200;SDS011;20469;55.638;37.670;2023-05-21T02:22:03;12.65;;;8.48;;
34200;SDS011;20469;55.638;37.670;2023-05-21T02:24:30;12.75;;;8.30;;
34200;SDS011;20469;55.638;37.670;2023-05-21T02:26:57;12.45;;;8.93;;
34200;SDS011;20469;55.638;37.670;2023-05-21T02:29:24;9.57;;;8.65;;
34200;SDS011;20469;55.638;37.670;2023-05-21T02:31:52;10.32;;;8.55;;
34200;SDS011;20469;55.638;37.670;2023-05-21T02:34:19;10.68;;;9.13;;
34200;SDS011;20469;55.638;37.670;2023-05-21T02:36:47;11.65;;;9.75;;
34200;SDS011;20469;55.638;37.670;2023-05-21T02:39:18;11.27;;;9.45;;
34200;SDS011;20469;55.638;37.670;2023-05-21T02:41:45;12.00;;;9.70;;
34200;SDS011;20469;55.638;37.670;2023-05-21T02:44:14;11.15;;;8.65;;
34200;SDS011;20469;55.638;37.670;2023-05-21T02:46:41;10.25;;;9.25;;
34200;SDS011;20469;55.638;37.670;2023-05-21T02:49:08;11.75;;;9.77;;
34200;SDS011;20469;55.638;37.670;2023-05-21T02:51:35;10.75;;;9.75;;
34200;SDS011;20469;55.638;37.670;2023-05-21T02:54:03;11.93;;;10.15;;
34200;SDS011;20469;55.638;37.670;2023-05-21T02:56:30;12.73;;;10.38;;
34200;SDS011;20469;55.638;37.670;2023-05-21T02:58:57;12.40;;;11.10;;
34200;SDS011;20469;55.638;37.670;2023-05-21T03:01:24;12.38;;;10.68;;
34200;SDS011;20469;55.638;37.670;2023-05-21T03:03:51;13.05;;;11.63;;
34200;SDS011;20469;55.638;37.670;2023-05-21T03:06:19;13.73;;;11.55;;
34200;SDS011;20469;55.638;37.670;2023-05-21T03:08:46;14.40;;;12.27;;
34200;SDS011;20469;55.638;37.670;2023-05-21T03:11:13;15.50;;;12.07;;
34200;SDS011;20469;55.638;37.670;2023-05-21T03:13:40;14.43;;;12.70;;
34200;SDS011;20469;55.638;37.670;2023-05-21T03:16:08;14.60;;;12.38;;
34200;SDS011;20469;55.638;37.670;2023-05-21T03:18:35;15.23;;;13.35;;
34200;SDS011;20469;55.638;37.670;2023-05-21T03:21:03;15.95;;;12.60;;
34200;SDS011;20469;55.638;37.670;2023-05-21T03:23:31;18.33;;;13.73;;
34200;SDS011;20469;55.638;37.670;2023-05-21T03:25:58;15.70;;;13.02;;
34200;SDS011;20469;55.638;37.670;2023-05-21T03:28:25;14.73;;;11.93;;
34200;SDS011;20469;55.638;37.670;2023-05-21T03:30:52;16.90;;;12.50;;
34200;SDS011;20469;55.638;37.670;2023-05-21T03:33:20;15.32;;;12.30;;
34200;SDS011;20469;55.638;37.670;2023-05-21T03:35:48;15.32;;;12.35;;
34200;SDS011;20469;55.638;37.670;2023-05-21T03:38:15;14.32;;;11.95;;
34200;SDS011;20469;55.638;37.670;2023-05-21T03:40:42;14.95;;;12.15;;
34200;SDS011;20469;55.638;37.670;2023-05-21T03:43:09;15.60;;;12.18;;
34200;SDS011;20469;55.638;37.670;2023-05-21T03:45:36;14.15;;;11.77;;
34200;SDS011;20469;55.638;37.670;2023-05-21T03:48:06;12.40;;;10.77;;
34200;SDS011;20469;55.638;37.670;2023-05-21T03:50:51;12.90;;;10.70;;
34200;SDS011;20469;55.638;37.670;2023-05-21T03:53:19;15.00;;;10.07;;
34200;SDS011;20469;55.638;37.670;2023-05-21T03:55:46;12.07;;;9.40;;
34200;SDS011;20469;55.638;37.670;2023-05-21T03:58:21;12.18;;;9.13;;
34200;SDS011;20469;55.638;37.670;2023-05-21T04:00:48;11.38;;;9.63;;
34200;SDS011;20469;55.638;37.670;2023-05-21T04:03:16;12.07;;;9.68;;
34200;SDS011;20469;55.638;37.670;2023-05-21T04:05:43;12.50;;;10.07;;
34200;SDS011;20469;55.638;37.670;2023-05-21T04:08:10;12.40;;;10.25;;
34200;SDS011;20469;55.638;37.670;2023-05-21T04:10:37;12.50;;;10.55;;
34200;SDS011;20469;55.638;37.670;2023-05-21T04:13:05;13.18;;;10.65;;
34200;SDS011;20469;55.638;37.670;2023-05-21T04:15:32;13.68;;;11.05;;
34200;SDS011;20469;55.638;37.670;2023-05-21T04:18:00;12.63;;;10.68;;
34200;SDS011;20469;55.638;37.670;2023-05-21T04:20:28;14.38;;;11.35;;
34200;SDS011;20469;55.638;37.670;2023-05-21T04:22:55;14.43;;;11.85;;
34200;SDS011;20469;55.638;37.670;2023-05-21T04:25:22;16.40;;;12.82;;
34200;SDS011;20469;55.638;37.670;2023-05-21T04:27:50;16.73;;;12.45;;
34200;SDS011;20469;55.638;37.670;2023-05-21T04:30:20;16.80;;;13.50;;
34200;SDS011;20469;55.638;37.670;2023-05-21T04:32:47;15.00;;;12.93;;
34200;SDS011;20469;55.638;37.670;2023-05-21T04:35:14;15.70;;;12.55;;
34200;SDS011;20469;55.638;37.670;2023-05-21T04:37:42;17.20;;;12.45;;
34200;SDS011;20469;55.638;37.670;2023-05-21T04:40:12;15.23;;;12.15;;
34200;SDS011;20469;55.638;37.670;2023-05-21T04:42:44;14.77;;;11.88;;
34200;SDS011;20469;55.638;37.670;2023-05-21T04:45:16;15.17;;;12.40;;
34200;SDS011;20469;55.638;37.670;2023-05-21T04:47:43;14.63;;;12.20;;
34200;SDS011;20469;55.638;37.670;2023-05-21T04:50:11;14.75;;;12.45;;
34200;SDS011;20469;55.638;37.670;2023-05-21T04:52:38;16.60;;;12.70;;
34200;SDS011;20469;55.638;37.670;2023-05-21T04:55:06;16.15;;;12.52;;
34200;SDS011;20469;55.638;37.670;2023-05-21T04:57:34;15.55;;;12.10;;
34200;SDS011;20469;55.638;37.670;2023-05-21T05:00:02;14.93;;;11.98;;
34200;SDS011;20469;55.638;37.670;2023-05-21T05:02:31;14.50;;;11.65;;
34200;SDS011;20469;55.638;37.670;2023-05-21T05:04:59;13.38;;;11.30;;
34200;SDS011;20469;55.638;37.670;2023-05-21T05:07:27;13.43;;;11.00;;
34200;SDS011;20469;55.638;37.670;2023-05-21T05:10:01;17.60;;;12.50;;
34200;SDS011;20469;55.638;37.670;2023-05-21T05:12:31;16.83;;;11.70;;
34200;SDS011;20469;55.638;37.670;2023-05-21T05:14:58;18.17;;;12.30;;
34200;SDS011;20469;55.638;37.670;2023-05-21T05:17:25;14.05;;;11.98;;
34200;SDS011;20469;55.638;37.670;2023-05-21T05:19:53;13.73;;;11.65;;
34200;SDS011;20469;55.638;37.670;2023-05-21T05:22:20;15.27;;;12.00;;
34200;SDS011;20469;55.638;37.670;2023-05-21T05:24:47;13.30;;;11.32;;
34200;SDS011;20469;55.638;37.670;2023-05-21T05:27:14;14.50;;;10.90;;
34200;SDS011;20469;55.638;37.670;2023-05-21T05:29:41;12.95;;;10.70;;
34200;SDS011;20469;55.638;37.670;2023-05-21T05:32:09;12.88;;;9.68;;
34200;SDS011;20469;55.638;37.670;2023-05-21T05:34:36;13.60;;;10.75;;
34200;SDS011;20469;55.638;37.670;2023-05-21T05:37:04;13.00;;;9.80;;
34200;SDS011;20469;55.638;37.670;2023-05-21T05:39:31;13.80;;;10.93;;
34200;SDS011;20469;55.638;37.670;2023-05-21T05:41:58;11.95;;;9.93;;
34200;SDS011;20469;55.638;37.670;2023-05-21T05:44:26;11.98;;;9.73;;
34200;SDS011;20469;55.638;37.670;2023-05-21T05:46:53;12.23;;;9.88;;
34200;SDS011;20469;55.638;37.670;2023-05-21T05:49:20;12.20;;;10.82;;
34200;SDS011;20469;55.638;37.670;2023-05-21T05:51:47;13.60;;;10.30;;
34200;SDS011;20469;55.638;37.670;2023-05-21T05:54:14;11.95;;;10.43;;
34200;SDS011;20469;55.638;37.670;2023-05-21T05:56:42;11.85;;;9.23;;
34200;SDS011;20469;55.638;37.670;2023-05-21T05:59:09;12.02;;;9.55;;
34200;SDS011;20469;55.638;37.670;2023-05-21T06:01:36;13.18;;;10.23;;
34200;SDS011;20469;55.638;37.670;2023-05-21T06:04:03;11.90;;;10.48;;
34200;SDS011;20469;55.638;37.670;2023-05-21T06:06:31;13.38;;;10.50;;
34200;SDS011;20469;55.638;37.670;2023-05-21T06:09:00;10.55;;;9.40;;
34200;SDS011;20469;55.638;37.670;2023-05-21T06:11:27;10.02;;;9.02;;
34200;SDS011;20469;55.638;37.670;2023-05-21T06:13:54;11.18;;;9.82;;
34200;SDS011;20469;55.638;37.670;2023-05-21T06:16:22;12.13;;;9.52;;
34200;SDS011;20469;55.638;37.670;2023-05-21T06:18:49;13.52;;;8.73;;
34200;SDS011;20469;55.638;37.670;2023-05-21T06:21:17;12.52;;;9.35;;
34200;SDS011;20469;55.638;37.670;2023-05-21T06:23:44;13.00;;;9.10;;
34200;SDS011;20469;55.638;37.670;2023-05-21T06:26:11;11.60;;;8.60;;
34200;SDS011;20469;55.638;37.670;2023-05-21T06:28:38;9.68;;;7.90;;
34200;SDS011;20469;55.638;37.670;2023-05-21T06:31:06;10.80;;;8.57;;
34200;SDS011;20469;55.638;37.670;2023-05-21T06:33:33;10.20;;;8.18;;
34200;SDS011;20469;55.638;37.670;2023-05-21T06:36:00;10.77;;;8.82;;
34200;SDS011;20469;55.638;37.670;2023-05-21T06:38:28;8.85;;;7.60;;
34200;SDS011;20469;55.638;37.670;2023-05-21T06:40:55;8.75;;;7.78;;
34200;SDS011;20469;55.638;37.670;2023-05-21T06:43:23;9.73;;;7.80;;
34200;SDS011;20469;55.638;37.670;2023-05-21T06:45:51;9.65;;;8.68;;
34200;SDS011;20469;55.638;37.670;2023-05-21T06:48:18;12.60;;;8.80;;
34200;SDS011;20469;55.638;37.670;2023-05-21T06:50:46;11.43;;;8.82;;
34200;SDS011;20469;55.638;37.670;2023-05-21T06:53:13;11.70;;;8.98;;
34200;SDS011;20469;55.638;37.670;2023-05-21T06:55:41;10.48;;;9.23;;
34200;SDS011;20469;55.638;37.670;2023-05-21T06:58:11;12.82;;;9.50;;
34200;SDS011;20469;55.638;37.670;2023-05-21T07:03:25;12.30;;;7.95;;
34200;SDS011;20469;55.638;37.670;2023-05-21T07:05:52;10.90;;;8.02;;
34200;SDS011;20469;55.638;37.670;2023-05-21T07:08:20;12.63;;;8.45;;
34200;SDS011;20469;55.638;37.670;2023-05-21T07:10:47;9.65;;;8.65;;
34200;SDS011;20469;55.638;37.670;2023-05-21T07:13:15;11.52;;;8.88;;
34200;SDS011;20469;55.638;37.670;2023-05-21T07:15:42;10.85;;;8.40;;
34200;SDS011;20469;55.638;37.670;2023-05-21T07:18:09;10.50;;;8.52;;
34200;SDS011;20469;55.638;37.670;2023-05-21T07:20:37;10.52;;;8.18;;
34200;SDS011;20469;55.638;37.670;2023-05-21T07:23:04;10.63;;;8.98;;
34200;SDS011;20469;55.638;37.670;2023-05-21T07:25:32;11.82;;;8.70;;
34200;SDS011;20469;55.638;37.670;2023-05-21T07:27:59;11.18;;;8.73;;
34200;SDS011;20469;55.638;37.670;2023-05-21T07:30:26;11.80;;;8.90;;
34200;SDS011;20469;55.638;37.670;2023-05-21T07:32:54;12.82;;;8.98;;
34200;SDS011;20469;55.638;37.670;2023-05-21T07:35:21;11.07;;;8.20;;
34200;SDS011;20469;55.638;37.670;2023-05-21T07:37:48;10.63;;;7.20;;
34200;SDS011;20469;55.638;37.670;2023-05-21T07:40:16;9.70;;;8.25;;
34200;SDS011;20469;55.638;37.670;2023-05-21T07:42:44;8.85;;;7.35;;
34200;SDS011;20469;55.638;37.670;2023-05-21T07:45:11;11.32;;;6.00;;
34200;SDS011;20469;55.638;37.670;2023-05-21T07:47:39;8.13;;;5.60;;
34200;SDS011;20469;55.638;37.670;2023-05-21T07:50:06;9.05;;;5.38;;
34200;SDS011;20469;55.638;37.670;2023-05-21T07:52:34;7.25;;;5.22;;
34200;SDS011;20469;55.638;37.670;2023-05-21T07:55:01;6.20;;;5.35;;
34200;SDS011;20469;55.638;37.670;2023-05-21T07:57:29;8.27;;;5.95;;
34200;SDS011;20469;55.638;37.670;2023-05-21T07:59:57;6.35;;;4.53;;
34200;SDS011;20469;55.638;37.670;2023-05-21T08:02:24;4.68;;;3.78;;
34200;SDS011;20469;55.638;37.670;2023-05-21T08:04:52;5.80;;;3.63;;
34200;SDS011;20469;55.638;37.670;2023-05-21T08:07:20;3.67;;;3.25;;
34200;SDS011;20469;55.638;37.670;2023-05-21T08:09:48;3.90;;;3.13;;
34200;SDS011;20469;55.638;37.670;2023-05-21T08:12:15;5.05;;;3.08;;
34200;SDS011;20469;55.638;37.670;2023-05-21T08:14:44;3.85;;;3.13;;
34200;SDS011;20469;55.638;37.670;2023-05-21T08:17:11;5.43;;;3.05;;
34200;SDS011;20469;55.638;37.670;2023-05-21T08:19:38;7.05;;;3.50;;
34200;SDS011;20469;55.638;37.670;2023-05-21T08:22:06;3.95;;;3.17;;
34200;SDS011;20469;55.638;37.670;2023-05-21T08:24:33;5.43;;;3.55;;
34200;SDS011;20469;55.638;37.670;2023-05-21T08:27:00;5.05;;;3.17;;
34200;SDS011;20469;55.638;37.670;2023-05-21T08:29:27;5.55;;;3.47;;
34200;SDS011;20469;55.638;37.670;2023-05-21T08:31:55;4.85;;;3.38;;
34200;SDS011;20469;55.638;37.670;2023-05-21T08:34:22;3.22;;;2.92;;
34200;SDS011;20469;55.638;37.670;2023-05-21T08:36:50;3.95;;;2.92;;
34200;SDS011;20469;55.638;37.670;2023-05-21T08:39:19;5.45;;;2.97;;
34200;SDS011;20469;55.638;37.670;2023-05-21T08:41:46;5.88;;;3.05;;
34200;SDS011;20469;55.638;37.670;2023-05-21T08:44:19;3.85;;;3.20;;
34200;SDS011;20469;55.638;37.670;2023-05-21T08:46:51;5.88;;;3.05;;
34200;SDS011;20469;55.638;37.670;2023-05-21T08:49:20;8.13;;;3.47;;
34200;SDS011;20469;55.638;37.670;2023-05-21T08:51:52;6.53;;;3.30;;
34200;SDS011;20469;55.638;37.670;2023-05-21T08:54:21;4.05;;;3.20;;
34200;SDS011;20469;55.638;37.670;2023-05-21T08:56:49;6.57;;;3.20;;
34200;SDS011;20469;55.638;37.670;2023-05-21T08:59:18;4.10;;;2.50;;
34200;SDS011;20469;55.638;37.670;2023-05-21T09:01:47;5.20;;;3.00;;
34200;SDS011;20469;55.638;37.670;2023-05-21T09:04:15;4.03;;;3.53;;
34200;SDS011;20469;55.638;37.670;2023-05-21T09:06:47;4.00;;;2.75;;
34200;SDS011;20469;55.638;37.670;2023-05-21T09:09:24;3.22;;;2.80;;
34200;SDS011;20469;55.638;37.670;2023-05-21T09:11:57;3.05;;;2.40;;
34200;SDS011;20469;55.638;37.670;2023-05-21T09:14:25;2.90;;;2.30;;
34200;SDS011;20469;55.638;37.670;2023-05-21T09:16:52;2.60;;;2.40;;
34200;SDS011;20469;55.638;37.670;2023-05-21T09:19:19;2.40;;;2.20;;
34200;SDS011;20469;55.638;37.670;2023-05-21T09:21:49;2.90;;;2.17;;
34200;SDS011;20469;55.638;37.670;2023-05-21T09:24:20;4.57;;;1.90;;
34200;SDS011;20469;55.638;37.670;2023-05-21T09:26:48;3.25;;;2.28;;
34200;SDS011;20469;55.638;37.670;2023-05-21T09:29:16;3.75;;;2.50;;
34200;SDS011;20469;55.638;37.670;2023-05-21T09:31:43;5.13;;;2.60;;
34200;SDS011;20469;55.638;37.670;2023-05-21T09:34:11;6.47;;;2.70;;
34200;SDS011;20469;55.638;37.670;2023-05-21T09:36:39;2.30;;;2.00;;
34200;SDS011;20469;55.638;37.670;2023-05-21T09:39:07;3.72;;;2.42;;
34200;SDS011;20469;55.638;37.670;2023-05-21T09:41:36;4.15;;;2.40;;
34200;SDS011;20469;55.638;37.670;2023-05-21T09:44:04;4.93;;;2.67;;
34200;SDS011;20469;55.638;37.670;2023-05-21T09:46:37;2.97;;;2.30;;
34200;SDS011;20469;55.638;37.670;2023-05-21T09:49:23;3.95;;;2.50;;
34200;SDS011;20469;55.638;37.670;2023-05-21T09:51:53;3.58;;;2.50;;
34200;SDS011;20469;55.638;37.670;2023-05-21T09:54:24;2.93;;;2.70;;
34200;SDS011;20469;55.638;37.670;2023-05-21T09:56:57;2.78;;;2.50;;
34200;SDS011;20469;55.638;37.670;2023-05-21T09:59:34;2.97;;;2.75;;
34200;SDS011;20469;55.638;37.670;2023-05-21T10:05:04;3.75;;;2.90;;
34200;SDS011;20469;55.638;37.670;2023-05-21T10:07:34;6.55;;;3.65;;
34200;SDS011;20469;55.638;37.670;2023-05-21T10:10:02;4.82;;;3.70;;
34200;SDS011;20469;55.638;37.670;2023-05-21T10:12:32;5.00;;;3.72;;
34200;SDS011;20469;55.638;37.670;2023-05-21T10:15:02;4.90;;;3.58;;
34200;SDS011;20469;55.638;37.670;2023-05-21T10:17:33;6.93;;;3.83;;
34200;SDS011;20469;55.638;37.670;2023-05-21T10:20:01;8.57;;;3.90;;
34200;SDS011;20469;55.638;37.670;2023-05-21T10:22:30;7.15;;;3.80;;
34200;SDS011;20469;55.638;37.670;2023-05-21T10:24:58;5.88;;;3.65;;
34200;SDS011;20469;55.638;37.670;2023-05-21T10:27:31;4.90;;;4.40;;
34200;SDS011;20469;55.638;37.670;2023-05-21T10:30:00;5.20;;;4.03;;
34200;SDS011;20469;55.638;37.670;2023-05-21T10:32:31;7.25;;;4.43;;
34200;SDS011;20469;55.638;37.670;2023-05-21T10:35:00;5.00;;;4.35;;
34200;SDS011;20469;55.638;37.670;2023-05-21T10:37:31;4.90;;;4.38;;
34200;SDS011;20469;55.638;37.670;2023-05-21T10:39:58;6.10;;;4.35;;
34200;SDS011;20469;55.638;37.670;2023-05-21T11:01:40;3.63;;;2.45;;
34200;SDS011;20469;55.638;37.670;2023-05-21T11:04:08;4.55;;;3.22;;
34200;SDS011;20469;55.638;37.670;2023-05-21T11:06:37;2.70;;;2.22;;
34200;SDS011;20469;55.638;37.670;2023-05-21T11:09:11;2.33;;;2.10;;
34200;SDS011;20469;55.638;37.670;2023-05-21T11:11:58;2.90;;;2.00;;
34200;SDS011;20469;55.638;37.670;2023-05-21T11:14:29;2.00;;;1.85;;
34200;SDS011;20469;55.638;37.670;2023-05-21T11:17:02;2.72;;;2.17;;
34200;SDS011;20469;55.638;37.670;2023-05-21T11:19:48;3.55;;;2.13;;
34200;SDS011;20469;55.638;37.670;2023-05-21T11:22:21;3.05;;;1.60;;
34200;SDS011;20469;55.638;37.670;2023-05-21T11:24:51;2.47;;;1.90;;
34200;SDS011;20469;55.638;37.670;2023-05-21T11:27:35;3.90;;;2.30;;
34200;SDS011;20469;55.638;37.670;2023-05-21T11:30:07;3.63;;;2.03;;
34200;SDS011;20469;55.638;37.670;2023-05-21T11:32:39;2.80;;;2.05;;
34200;SDS011;20469;55.638;37.670;2023-05-21T11:38:54;4.30;;;2.45;;
34200;SDS011;20469;55.638;37.670;2023-05-21T11:44:45;4.05;;;2.53;;
34200;SDS011;20469;55.638;37.670;2023-05-21T11:47:14;3.65;;;2.65;;
34200;SDS011;20469;55.638;37.670;2023-05-21T11:49:43;3.88;;;2.75;;
34200;SDS011;20469;55.638;37.670;2023-05-21T11:52:12;3.92;;;2.72;;
34200;SDS011;20469;55.638;37.670;2023-05-21T11:55:01;5.72;;;2.97;;
34200;SDS011;20469;55.638;37.670;2023-05-21T12:00:53;6.00;;;3.20;;
34200;SDS011;20469;55.638;37.670;2023-05-21T12:03:21;5.68;;;2.95;;
34200;SDS011;20469;55.638;37.670;2023-05-21T12:05:52;4.20;;;2.70;;
34200;SDS011;20469;55.638;37.670;2023-05-21T12:08:22;5.63;;;2.92;;
34200;SDS011;20469;55.638;37.670;2023-05-21T12:10:56;4.43;;;2.80;;
34200;SDS011;20469;55.638;37.670;2023-05-21T12:13:25;6.07;;;4.45;;
34200;SDS011;20469;55.638;37.670;2023-05-21T12:16:12;4.60;;;2.90;;
34200;SDS011;20469;55.638;37.670;2023-05-21T12:18:41;4.80;;;3.38;;
34200;SDS011;20469;55.638;37.670;2023-05-21T12:21:08;8.65;;;3.30;;
34200;SDS011;20469;55.638;37.670;2023-05-21T12:23:38;4.70;;;3.05;;
34200;SDS011;20469;55.638;37.670;2023-05-21T12:26:05;4.25;;;2.90;;
34200;SDS011;20469;55.638;37.670;2023-05-21T12:28:33;5.63;;;3.00;;
34200;SDS011;20469;55.638;37.670;2023-05-21T12:31:01;4.50;;;2.70;;
34200;SDS011;20469;55.638;37.670;2023-05-21T12:33:34;4.45;;;2.78;;
34200;SDS011;20469;55.638;37.670;2023-05-21T12:38:56;3.47;;;2.70;;
34200;SDS011;20469;55.638;37.670;2023-05-21T12:41:23;2.85;;;2.63;;
34200;SDS011;20469;55.638;37.670;2023-05-21T12:43:51;5.45;;;2.53;;
34200;SDS011;20469;55.638;37.670;2023-05-21T12:46:19;3.45;;;2.67;;
34200;SDS011;20469;55.638;37.670;2023-05-21T12:48:49;3.78;;;2.40;;
34200;SDS011;20469;55.638;37.670;2023-05-21T12:51:19;2.83;;;2.38;;
34200;SDS011;20469;55.638;37.670;2023-05-21T12:53:46;2.85;;;2.30;;
34200;SDS011;20469;55.638;37.670;2023-05-21T12:56:14;3.28;;;2.90;;
34200;SDS011;20469;55.638;37.670;2023-05-21T12:58:41;4.38;;;2.95;;
34200;SDS011;20469;55.638;37.670;2023-05-21T13:01:15;6.43;;;3.28;;
34200;SDS011;20469;55.638;37.670;2023-05-21T13:03:42;5.50;;;3.08;;
34200;SDS011;20469;55.638;37.670;2023-05-21T13:06:10;6.50;;;2.97;;
34200;SDS011;20469;55.638;37.670;2023-05-21T13:08:39;4.28;;;2.65;;
34200;SDS011;20469;55.638;37.670;2023-05-21T13:11:06;4.10;;;2.50;;
34200;SDS011;20469;55.638;37.670;2023-05-21T13:13:33;4.25;;;2.78;;
34200;SDS011;20469;55.638;37.670;2023-05-21T13:16:19;6.03;;;3.00;;
34200;SDS011;20469;55.638;37.670;2023-05-21T13:18:48;9.15;;;3.03;;
34200;SDS011;20469;55.638;37.670;2023-05-21T13:21:15;5.78;;;2.80;;
34200;SDS011;20469;55.638;37.670;2023-05-21T13:23:42;8.73;;;3.22;;
34200;SDS011;20469;55.638;37.670;2023-05-21T13:26:10;6.07;;;3.08;;
34200;SDS011;20469;55.638;37.670;2023-05-21T13:28:37;5.13;;;3.13;;
34200;SDS011;20469;55.638;37.670;2023-05-21T13:31:07;5.22;;;3.05;;
34200;SDS011;20469;55.638;37.670;2023-05-21T13:33:37;4.68;;;2.60;;
34200;SDS011;20469;55.638;37.670;2023-05-21T13:36:04;5.65;;;2.97;;
34200;SDS011;20469;55.638;37.670;2023-05-21T13:38:32;4.45;;;2.88;;
34200;SDS011;20469;55.638;37.670;2023-05-21T13:40:59;5.72;;;2.85;;
34200;SDS011;20469;55.638;37.670;2023-05-21T13:43:27;11.20;;;3.22;;
34200;SDS011;20469;55.638;37.670;2023-05-21T13:46:12;5.53;;;3.08;;
34200;SDS011;20469;55.638;37.670;2023-05-21T13:51:26;4.28;;;2.63;;
34200;SDS011;20469;55.638;37.670;2023-05-21T13:54:04;5.10;;;2.53;;
34200;SDS011;20469;55.638;37.670;2023-05-21T13:56:32;3.50;;;2.67;;
34200;SDS011;20469;55.638;37.670;2023-05-21T13:58:59;4.03;;;2.65;;
34200;SDS011;20469;55.638;37.670;2023-05-21T14:01:27;4.88;;;2.80;;
34200;SDS011;20469;55.638;37.670;2023-05-21T14:03:54;4.43;;;3.10;;
34200;SDS011;20469;55.638;37.670;2023-05-21T14:06:22;4.68;;;2.75;;
34200;SDS011;20469;55.638;37.670;2023-05-21T14:08:49;4.93;;;3.10;;
34200;SDS011;20469;55.638;37.670;2023-05-21T14:14:03;3.50;;;2.40;;
34200;SDS011;20469;55.638;37.670;2023-05-21T14:16:49;4.25;;;2.63;;
34200;SDS011;20469;55.638;37.670;2023-05-21T14:19:17;5.00;;;3.30;;
34200;SDS011;20469;55.638;37.670;2023-05-21T14:21:44;6.88;;;3.30;;
34200;SDS011;20469;55.638;37.670;2023-05-21T14:24:12;3.15;;;2.85;;
34200;SDS011;20469;55.638;37.670;2023-05-21T14:26:39;4.15;;;3.38;;
34200;SDS011;20469;55.638;37.670;2023-05-21T14:31:53;3.53;;;3.08;;
34200;SDS011;20469;55.638;37.670;2023-05-21T14:34:20;5.22;;;3.92;;
34200;SDS011;20469;55.638;37.670;2023-05-21T14:36:47;6.28;;;3.47;;
34200;SDS011;20469;55.638;37.670;2023-05-21T14:39:15;5.13;;;3.63;;
34200;SDS011;20469;55.638;37.670;2023-05-21T14:41:42;5.32;;;2.97;;
34200;SDS011;20469;55.638;37.670;2023-05-21T14:44:09;7.13;;;3.08;;
34200;SDS011;20469;55.638;37.670;2023-05-21T14:46:37;5.80;;;3.13;;
34200;SDS011;20469;55.638;37.670;2023-05-21T14:49:05;3.53;;;2.60;;
34200;SDS011;20469;55.638;37.670;2023-05-21T14:51:32;6.18;;;3.00;;
34200;SDS011;20469;55.638;37.670;2023-05-21T14:53:59;4.95;;;2.50;;
34200;SDS011;20469;55.638;37.670;2023-05-21T14:56:26;7.22;;;3.00;;
34200;SDS011;20469;55.638;37.670;2023-05-21T14:58:54;4.60;;;3.03;;
34200;SDS011;20469;55.638;37.670;2023-05-21T15:01:21;19.25;;;7.45;;
34200;SDS011;20469;55.638;37.670;2023-05-21T15:03:49;19.90;;;7.20;;
34200;SDS011;20469;55.638;37.670;2023-05-21T15:06:17;17.92;;;7.10;;
34200;SDS011;20469;55.638;37.670;2023-05-21T15:08:44;44.30;;;16.90;;
34200;SDS011;20469;55.638;37.670;2023-05-21T15:11:11;35.58;;;14.43;;
34200;SDS011;20469;55.638;37.670;2023-05-21T15:16:25;20.67;;;8.73;;
34200;SDS011;20469;55.638;37.670;2023-05-21T15:18:52;15.95;;;7.38;;
34200;SDS011;20469;55.638;37.670;2023-05-21T15:21:20;15.68;;;6.50;;
34200;SDS011;20469;55.638;37.670;2023-05-21T15:26:33;4.97;;;3.10;;
34200;SDS011;20469;55.638;37.670;2023-05-21T15:29:00;21.67;;;9.40;;
34200;SDS011;20469;55.638;37.670;2023-05-21T15:31:29;7.20;;;4.10;;